MXP weather

Malpensa International Airport
Milan, Lombardy, Italy

Public forecast

Using degrees Celsius for public forecast. Weather courtesy of forecast.io.

METAR (pilot weather report)

Retrieved 2019/03/22 15:20 UTC (36 minutes ago):

LIMC 221520Z 24007KT CAVOK 19/M02 Q1027 NOSIG

TAF (pilot weather forecast)

Retrieved 2019/03/22 12:00 UTC (4 hours ago):

TAF LIMC 221100Z 2212/2318 VRB05KT CAVOK